Central Park, Illinois
Current Conditions -  °F | °C
As of 7:35 PM on Tuesday 25 Nov 2014 (Local Time) from KDNV Reporting Station
Overcast Overcast  
Wind Chill: 25°   Ceiling: 1500
Heat Index: 25°   Visibility: 10mi
Dew Point: 20°   Wind: 3mph
Humidity: 82%   Direction: 250°WSW
Pressure: 30.2"   Gusts: NA
Location:  40.1365°N, 87.6307°W
Report Text: KDNV 260135Z AUTO 25003KT 10SM OVC015 M04/M07 A3020 RMK AO2 T10401066
Loading
Personal Weather Stations






























Interactive Weather Map New forecast layout! Learn more

10-Day Weather Forecast

Advertisements
Track Severe Weather on mobile